createdAt,value
2023-03-15T00:00:50.700Z,4.13
2023-03-15T00:03:25.698Z,4.12
2023-03-15T00:10:30.889Z,3.88
2023-03-15T00:18:07.582Z,3.78
2023-03-15T00:20:47.306Z,3.71
2023-03-15T00:27:52.179Z,3.65
2023-03-15T00:30:24.655Z,3.61
2023-03-15T00:32:57.163Z,3.56
2023-03-15T00:43:52.264Z,3.40
2023-03-15T00:46:24.539Z,3.39
2023-03-15T00:48:57.327Z,3.39
2023-03-15T00:51:30.429Z,3.41
2023-03-15T00:54:09.178Z,3.41
2023-03-15T00:56:42.217Z,3.42
2023-03-15T00:59:14.399Z,3.41
2023-03-15T01:01:53.348Z,3.37
2023-03-15T01:04:49.074Z,3.33
2023-03-15T01:12:12.800Z,3.36
2023-03-15T01:15:28.076Z,3.34
2023-03-15T01:22:36.134Z,3.28
2023-03-15T01:25:11.827Z,3.25
2023-03-15T01:32:10.320Z,3.23
2023-03-15T01:39:26.857Z,3.22
2023-03-15T01:46:35.203Z,3.28
2023-03-15T01:50:16.894Z,3.31
2023-03-15T01:52:49.204Z,3.34
2023-03-15T01:59:36.470Z,3.35
2023-03-15T02:06:46.711Z,3.34
2023-03-15T02:14:36.584Z,3.33
2023-03-15T02:34:58.311Z,3.30
2023-03-15T02:42:03.652Z,3.29
2023-03-15T02:44:44.067Z,3.29
2023-03-15T02:51:45.566Z,3.26
2023-03-15T02:54:17.841Z,3.26
2023-03-15T03:01:20.905Z,3.22
2023-03-15T03:03:53.158Z,3.22
2023-03-15T03:06:25.365Z,3.19
2023-03-15T03:12:57.534Z,3.13
2023-03-15T03:20:01.410Z,3.12
2023-03-15T03:27:29.696Z,3.11
2023-03-15T03:34:52.515Z,3.09
2023-03-15T03:37:54.842Z,3.06
2023-03-15T03:45:12.847Z,3.00
2023-03-15T03:48:15.376Z,2.99
2023-03-15T03:50:47.826Z,2.97
2023-03-15T03:53:26.609Z,2.93
2023-03-15T03:56:21.422Z,2.88
2023-03-15T03:58:53.924Z,2.88
2023-03-15T04:01:58.212Z,2.86
2023-03-15T04:13:20.907Z,2.88
2023-03-15T04:27:20.243Z,2.80
2023-03-15T04:30:32.206Z,2.77
2023-03-15T04:33:50.410Z,2.77
2023-03-15T04:45:29.966Z,2.69
2023-03-15T04:48:41.735Z,2.66
2023-03-15T04:51:59.500Z,2.66
2023-03-15T04:59:33.949Z,2.66
2023-03-15T05:03:23.272Z,2.69
2023-03-15T05:14:57.996Z,2.62
2023-03-15T05:22:14.529Z,2.62
2023-03-15T05:25:27.827Z,2.59
2023-03-15T05:28:47.515Z,2.64
2023-03-15T05:31:58.688Z,2.63
2023-03-15T05:35:15.922Z,2.59
2023-03-15T05:42:29.950Z,2.58
2023-03-15T05:49:32.538Z,2.64
2023-03-15T05:53:37.626Z,2.70
2023-03-15T06:09:30.082Z,2.71
2023-03-15T06:12:44.912Z,2.73
2023-03-15T06:15:23.283Z,2.74
2023-03-15T06:18:11.338Z,2.75
2023-03-15T06:34:22.420Z,2.82
2023-03-15T06:36:55.915Z,2.91
2023-03-15T06:44:00.527Z,3.18
2023-03-15T06:51:06.969Z,3.24
2023-03-15T06:53:39.116Z,3.28
2023-03-15T06:56:12.133Z,3.34
2023-03-15T06:58:50.679Z,3.32
2023-03-15T07:01:22.701Z,3.29
2023-03-15T07:03:54.870Z,3.30
2023-03-15T07:10:59.625Z,3.34
2023-03-15T07:13:34.251Z,3.36
2023-03-15T07:16:07.050Z,3.33
2023-03-15T07:18:39.209Z,3.25
2023-03-15T07:21:11.288Z,3.25
2023-03-15T07:23:43.234Z,3.35
2023-03-15T07:26:33.521Z,3.42
2023-03-15T07:29:15.710Z,3.47
2023-03-15T07:45:28.769Z,3.75
2023-03-15T07:48:08.206Z,3.79
2023-03-15T07:50:40.489Z,3.92
2023-03-15T07:57:43.667Z,4.25
2023-03-15T08:00:20.377Z,4.44
2023-03-15T08:02:53.715Z,4.85
2023-03-15T08:05:28.918Z,4.93
2023-03-15T08:08:03.091Z,4.84
2023-03-15T08:14:08.775Z,4.68
2023-03-15T08:16:47.733Z,4.61
2023-03-15T08:19:20.068Z,4.65
2023-03-15T08:21:58.951Z,4.97
2023-03-15T08:24:31.165Z,5.49
2023-03-15T08:27:10.124Z,6.21
2023-03-15T08:29:42.573Z,6.47
2023-03-15T08:32:21.671Z,6.49
2023-03-15T08:34:54.318Z,6.39
2023-03-15T08:38:14.615Z,6.40
2023-03-15T08:40:46.915Z,6.24
2023-03-15T08:43:19.014Z,6.15
2023-03-15T08:46:00.547Z,6.14
2023-03-15T08:49:18.696Z,6.22
2023-03-15T08:51:58.046Z,6.31
2023-03-15T08:54:30.256Z,6.43
2023-03-15T08:57:02.520Z,6.52
2023-03-15T09:04:09.006Z,7.97
2023-03-15T09:06:47.892Z,7.94
2023-03-15T09:13:52.878Z,9.61
2023-03-15T09:20:23.424Z,11.38
2023-03-15T09:22:57.219Z,11.58
2023-03-15T09:25:29.573Z,11.61
2023-03-15T09:28:28.060Z,11.92
2023-03-15T09:31:08.660Z,12.00
2023-03-15T09:33:41.298Z,12.11
2023-03-15T09:36:55.109Z,12.56
2023-03-15T09:44:26.766Z,13.10
2023-03-15T09:59:36.729Z,10.24
2023-03-15T10:19:09.725Z,8.42
2023-03-15T10:26:57.779Z,8.77
2023-03-15T10:29:37.840Z,8.62
2023-03-15T10:36:36.880Z,8.48
2023-03-15T10:48:37.775Z,8.26
2023-03-15T11:00:29.588Z,7.87
2023-03-15T11:07:16.905Z,7.37
2023-03-15T11:14:02.810Z,7.05
2023-03-15T11:21:18.552Z,6.92
2023-03-15T11:23:53.607Z,6.82
2023-03-15T11:49:00.822Z,6.78
2023-03-15T11:51:36.541Z,6.95
2023-03-15T11:58:52.913Z,6.94
2023-03-15T12:10:14.389Z,6.96
2023-03-15T12:12:49.549Z,6.97
2023-03-15T12:16:08.730Z,6.83
2023-03-15T12:22:58.280Z,6.53
2023-03-15T12:26:10.602Z,6.60
2023-03-15T12:32:58.829Z,6.87
2023-03-15T12:35:51.991Z,6.82
2023-03-15T12:38:25.482Z,6.74
2023-03-15T12:41:33.066Z,6.71
2023-03-15T12:48:19.303Z,6.66
2023-03-15T12:51:26.904Z,6.60
2023-03-15T12:54:11.072Z,6.54
2023-03-15T13:01:22.773Z,6.57
2023-03-15T13:04:00.682Z,6.61
2023-03-15T13:15:20.336Z,6.44
2023-03-15T13:23:06.325Z,6.73
2023-03-15T13:34:26.684Z,6.66
2023-03-15T13:37:33.370Z,6.62
2023-03-15T13:44:55.729Z,6.59
2023-03-15T13:48:01.040Z,6.72
2023-03-15T13:50:40.621Z,6.83
2023-03-15T13:57:26.854Z,6.95
2023-03-15T14:12:53.837Z,6.88
2023-03-15T14:28:18.863Z,6.63
2023-03-15T14:30:59.551Z,6.67
2023-03-15T14:38:40.472Z,6.87
2023-03-15T14:46:18.508Z,6.90
2023-03-15T14:48:52.337Z,6.91
2023-03-15T14:51:33.060Z,6.96
2023-03-15T14:58:37.402Z,6.93
2023-03-15T15:01:50.136Z,6.98
2023-03-15T15:04:24.859Z,7.04
2023-03-15T15:07:49.483Z,7.07
2023-03-15T15:10:21.858Z,7.02
2023-03-15T15:13:06.433Z,6.93
2023-03-15T15:16:24.333Z,6.71
2023-03-15T15:18:56.540Z,6.63
2023-03-15T15:21:36.368Z,6.64
2023-03-15T15:28:05.419Z,6.72
2023-03-15T15:31:32.872Z,6.74
2023-03-15T15:34:12.332Z,6.70
2023-03-15T15:36:46.640Z,6.67
2023-03-15T15:39:28.006Z,6.63
2023-03-15T15:42:45.409Z,6.58
2023-03-15T15:45:24.924Z,6.55
2023-03-15T15:47:57.138Z,6.50
2023-03-15T15:50:37.130Z,6.39
2023-03-15T16:02:15.753Z,6.02
2023-03-15T16:04:48.265Z,5.95
2023-03-15T16:07:27.769Z,5.89
2023-03-15T16:10:01.597Z,5.84
2023-03-15T16:12:40.777Z,5.75
2023-03-15T16:15:16.309Z,5.68
2023-03-15T16:35:37.563Z,5.39
2023-03-15T16:38:33.195Z,5.36
2023-03-15T16:41:05.443Z,5.30
2023-03-15T16:43:37.675Z,5.25
2023-03-15T16:46:15.825Z,5.21
2023-03-15T16:48:48.241Z,5.17
2023-03-15T16:51:20.751Z,5.12
2023-03-15T16:54:02.266Z,5.11
2023-03-15T16:56:53.286Z,5.10
2023-03-15T16:59:25.660Z,5.10
2023-03-15T17:01:57.909Z,5.09
2023-03-15T17:04:30.241Z,5.05
2023-03-15T17:07:03.177Z,5.01
2023-03-15T17:09:35.333Z,4.96
2023-03-15T17:12:08.060Z,4.89
2023-03-15T17:14:41.239Z,4.82
2023-03-15T17:17:13.466Z,4.75
2023-03-15T17:19:45.729Z,4.68
2023-03-15T17:22:18.432Z,4.61
2023-03-15T17:24:57.147Z,4.55
2023-03-15T17:27:35.456Z,4.50
2023-03-15T17:30:35.966Z,4.47
2023-03-15T17:33:08.578Z,4.51
2023-03-15T17:35:43.955Z,4.52
2023-03-15T17:38:19.185Z,4.49
2023-03-15T17:40:51.737Z,4.50
2023-03-15T17:43:23.870Z,4.52
2023-03-15T17:45:56.056Z,4.51
2023-03-15T17:48:28.495Z,4.46
2023-03-15T17:51:00.823Z,4.44
2023-03-15T17:53:33.017Z,4.43
2023-03-15T17:56:05.656Z,4.40
2023-03-15T17:58:37.895Z,4.41
2023-03-15T18:01:17.425Z,4.41
2023-03-15T18:03:50.674Z,4.42
2023-03-15T18:06:24.525Z,4.39
2023-03-15T18:08:57.036Z,4.36
2023-03-15T18:11:33.906Z,4.29
2023-03-15T18:14:06.445Z,4.24
2023-03-15T18:16:38.840Z,4.17
2023-03-15T18:19:11.050Z,4.12
2023-03-15T18:21:43.585Z,4.03
2023-03-15T18:24:16.194Z,3.92
2023-03-15T18:26:48.514Z,3.86
2023-03-15T18:29:20.830Z,3.82
2023-03-15T18:31:55.799Z,3.76
2023-03-15T18:34:28.694Z,3.71
2023-03-15T18:37:00.972Z,3.66
2023-03-15T18:39:33.142Z,3.61
2023-03-15T18:42:05.476Z,3.54
2023-03-15T18:44:45.870Z,3.46
2023-03-15T18:47:18.414Z,3.38
2023-03-15T18:49:53.179Z,3.32
2023-03-15T18:52:29.162Z,3.26
2023-03-15T18:55:01.664Z,3.20
2023-03-15T18:57:33.994Z,3.18
2023-03-15T19:02:56.209Z,3.07
2023-03-15T19:05:30.887Z,3.05
2023-03-15T19:08:03.273Z,3.06
2023-03-15T19:10:35.423Z,3.06
2023-03-15T19:13:07.959Z,2.99
2023-03-15T19:15:40.659Z,2.93
2023-03-15T19:18:13.146Z,2.89
2023-03-15T19:20:47.003Z,2.86
2023-03-15T19:23:19.522Z,2.82
2023-03-15T19:25:51.619Z,2.80
2023-03-15T19:28:37.460Z,2.78
2023-03-15T19:31:10.219Z,2.76
2023-03-15T19:33:45.412Z,2.75
2023-03-15T19:36:22.193Z,2.73
2023-03-15T19:38:54.376Z,2.68
2023-03-15T19:41:27.056Z,2.69
2023-03-15T19:43:59.237Z,2.73
2023-03-15T19:46:31.732Z,2.76
2023-03-15T19:49:04.567Z,2.79
2023-03-15T19:51:37.218Z,2.79
2023-03-15T19:54:10.232Z,2.80
2023-03-15T19:56:43.215Z,2.83
2023-03-15T19:59:15.527Z,2.84
2023-03-15T20:01:47.899Z,2.84
2023-03-15T20:07:54.526Z,2.82
2023-03-15T20:10:26.865Z,2.79
2023-03-15T20:17:15.750Z,2.75
2023-03-15T20:23:22.117Z,2.71
2023-03-15T20:29:59.762Z,2.66
2023-03-15T20:32:32.610Z,2.62
2023-03-15T20:35:23.204Z,2.56
2023-03-15T20:37:56.286Z,2.50
2023-03-15T20:40:28.683Z,2.40
2023-03-15T20:43:08.032Z,2.30
2023-03-15T20:45:40.813Z,2.23
2023-03-15T20:48:46.405Z,2.16
2023-03-15T20:51:25.820Z,2.07
2023-03-15T20:53:58.226Z,2.00
2023-03-15T20:56:37.728Z,1.94
2023-03-15T21:03:43.209Z,1.82
2023-03-15T21:14:45.155Z,1.62
2023-03-15T21:17:17.412Z,1.56
2023-03-15T21:19:57.074Z,1.51
2023-03-15T21:22:29.361Z,1.48
2023-03-15T21:33:12.972Z,1.27
2023-03-15T21:35:51.887Z,1.24
2023-03-15T21:46:36.404Z,1.03
2023-03-15T21:49:54.239Z,0.98
2023-03-15T21:52:50.184Z,0.96
2023-03-15T21:55:32.062Z,0.94
2023-03-15T21:58:50.226Z,0.83
2023-03-15T22:01:57.690Z,0.75
2023-03-15T22:09:04.820Z,0.65
2023-03-15T22:11:37.744Z,0.62
2023-03-15T22:14:16.859Z,0.58
2023-03-15T22:16:49.593Z,0.51
2023-03-15T22:19:28.808Z,0.47
2023-03-15T22:22:01.744Z,0.45
2023-03-15T22:24:41.912Z,0.46
2023-03-15T22:27:14.717Z,0.49
2023-03-15T22:29:53.843Z,0.44
2023-03-15T22:32:26.639Z,0.42
2023-03-15T22:38:41.322Z,0.33
2023-03-15T22:45:08.117Z,0.26
2023-03-15T22:52:13.639Z,0.29
2023-03-15T22:54:46.484Z,0.28
2023-03-15T22:57:26.990Z,0.20
2023-03-15T23:03:47.769Z,0.11
2023-03-15T23:06:20.822Z,0.12
2023-03-15T23:08:59.838Z,0.12
2023-03-15T23:11:32.245Z,0.14
2023-03-15T23:14:11.288Z,0.15
2023-03-15T23:16:44.236Z,0.15
2023-03-15T23:23:10.259Z,0.13
2023-03-15T23:25:48.074Z,0.08
2023-03-15T23:28:22.293Z,0.07
2023-03-15T23:31:04.929Z,0.09
2023-03-15T23:33:52.183Z,0.14
2023-03-15T23:36:31.934Z,0.18
2023-03-15T23:39:05.488Z,0.20
2023-03-15T23:41:46.282Z,0.21
2023-03-15T23:48:57.757Z,0.17
2023-03-15T23:56:22.257Z,0.10
2023-03-15T23:58:55.042Z,0.10
